Eastern Wv Regional Shepherd Field
KMRB : now visible

Airfield :











YOU CAN JOIN US ON...

 
LOGIN :

Register | Disclaimer

   EN    FR    IT 

 









Legend :    VFR   Marginal VFR   IFR   Intensive IFR   Very Intensive IFR
Visi :
Ceiling :
>= 8 km
>= 3000ft
5 to 8 km
1000 to 3000 ft
1500m to 5 km
500 to 1000 ft
800 to 1500m
200 to 500 ft
< 800m
< 200 ft
Symbols :   Thunderstorms  Fog  Heavy snow  Heavy precipitations  Wind > 20 kt






- Airport Elevation : 565 ft


KMRB - Eastern Wv Regional Shepherd Field

CURRENT METAR :
  • 060053Z AUTO 33010KT 10SM OVC045 04/M03 A2996 RMK AO2 SLP146 T00441033

EXPIRED METARs :
  • 052353Z AUTO 32010KT 10SM OVC048 05/M03 A2995 RMK AO2 SLP146 T00501033 10067 20050 51015
  • 052253Z AUTO 30014KT 10SM OVC046 05/M03 A2995 RMK AO2 SLP143 T00501033

TAF KMRB
Valid from the 06 at 00:00 until the 07 at 00:00 UTC


052321Z 0600/0624 30012G18KT P6SM BKN040
FM060900 30010KT P6SM SCT040
FM061400 30012G18KT P6SM FEW040 FEW250
FM062300 31007KT P6SM FEW150 SCT200
KZDC FIR / North America



MET'MAP, your aeronautical weather chart ! - Copyright ORBIFLY December 2007 - Disclaimer

ORBIFLY MET'MAP TEAM :

Programming & Development : Alexandra Zaïnal
Concept & original design : Baudouin d'Aumeries
Assistance for programming : Marc-Olivier Méhu
Technical & hardware support : Manuel Goepfert

Contact : metmap@orbifly.com




SOURCES & CREDITS :

   NOAA       Earth
Advisory